createdAt,value
2023-02-23T00:00:01.231Z,4.55
2023-02-23T00:03:06.390Z,4.52
2023-02-23T00:06:10.301Z,4.52
2023-02-23T00:09:23.070Z,4.47
2023-02-23T00:12:26.979Z,4.46
2023-02-23T00:15:30.502Z,4.43
2023-02-23T00:18:45.038Z,4.43
2023-02-23T00:21:48.171Z,4.40
2023-02-23T00:24:54.105Z,4.39
2023-02-23T00:27:57.277Z,4.37
2023-02-23T00:31:04.100Z,4.33
2023-02-23T00:34:15.073Z,4.31
2023-02-23T00:37:19.518Z,4.28
2023-02-23T00:40:27.336Z,4.30
2023-02-23T00:43:30.451Z,4.27
2023-02-23T00:46:33.457Z,4.31
2023-02-23T00:49:40.697Z,4.27
2023-02-23T00:52:45.258Z,4.27
2023-02-23T00:55:48.601Z,4.29
2023-02-23T00:58:51.911Z,4.26
2023-02-23T01:01:57.590Z,4.28
2023-02-23T01:05:02.029Z,4.26
2023-02-23T01:08:10.136Z,4.27
2023-02-23T01:11:19.434Z,4.25
2023-02-23T01:14:23.604Z,4.22
2023-02-23T01:17:27.563Z,4.20
2023-02-23T01:20:36.151Z,4.23
2023-02-23T01:23:41.644Z,4.22
2023-02-23T01:26:49.786Z,4.19
2023-02-23T01:29:52.860Z,4.19
2023-02-23T01:32:56.023Z,4.17
2023-02-23T01:36:01.627Z,4.15
2023-02-23T01:39:07.739Z,4.11
2023-02-23T01:42:14.588Z,4.10
2023-02-23T01:45:34.757Z,4.08
2023-02-23T01:48:41.494Z,4.06
2023-02-23T01:51:51.402Z,4.08
2023-02-23T01:54:56.908Z,4.10
2023-02-23T01:58:15.505Z,4.08
2023-02-23T02:01:19.781Z,4.07
2023-02-23T02:04:26.021Z,4.08
2023-02-23T02:07:35.137Z,4.07
2023-02-23T02:10:46.370Z,4.08
2023-02-23T02:13:50.683Z,4.06
2023-02-23T02:17:16.819Z,4.05
2023-02-23T02:21:15.999Z,4.02
2023-02-23T02:25:00.821Z,4.00
2023-02-23T02:28:54.732Z,3.97
2023-02-23T02:32:33.494Z,3.97
2023-02-23T02:36:19.869Z,3.96
2023-02-23T02:39:38.215Z,3.90
2023-02-23T02:42:58.262Z,3.90
2023-02-23T02:46:12.988Z,3.89
2023-02-23T02:49:26.682Z,3.88
2023-02-23T02:52:36.300Z,3.87
2023-02-23T02:55:43.880Z,3.82
2023-02-23T02:58:50.574Z,3.81
2023-02-23T03:02:12.581Z,3.82
2023-02-23T03:05:35.715Z,3.79
2023-02-23T03:09:03.682Z,3.82
2023-02-23T03:12:44.192Z,3.81
2023-02-23T03:16:22.075Z,3.76
2023-02-23T03:19:46.563Z,3.74
2023-02-23T03:23:16.517Z,3.73
2023-02-23T03:26:47.694Z,3.73
2023-02-23T03:30:17.667Z,3.68
2023-02-23T03:33:51.483Z,3.67
2023-02-23T03:37:25.211Z,3.66
2023-02-23T03:40:52.289Z,3.64
2023-02-23T03:44:17.145Z,3.65
2023-02-23T03:47:43.977Z,3.66
2023-02-23T03:51:13.339Z,3.66
2023-02-23T03:54:38.967Z,3.64
2023-02-23T03:58:02.560Z,3.59
2023-02-23T04:01:29.216Z,3.56
2023-02-23T04:04:53.473Z,3.49
2023-02-23T04:08:14.980Z,3.44
2023-02-23T04:11:44.661Z,3.44
2023-02-23T04:14:57.580Z,3.38
2023-02-23T04:18:01.268Z,3.33
2023-02-23T04:21:07.871Z,3.33
2023-02-23T04:24:12.058Z,3.29
2023-02-23T04:27:15.778Z,3.29
2023-02-23T04:30:20.542Z,3.22
2023-02-23T04:33:25.072Z,3.22
2023-02-23T04:36:29.468Z,3.18
2023-02-23T04:39:32.844Z,3.14
2023-02-23T04:42:36.546Z,3.10
2023-02-23T04:45:40.035Z,3.09
2023-02-23T04:48:43.189Z,3.09
2023-02-23T04:51:47.977Z,3.04
2023-02-23T04:54:51.230Z,2.99
2023-02-23T04:58:00.277Z,2.96
2023-02-23T05:01:09.678Z,2.93
2023-02-23T05:04:13.067Z,2.93
2023-02-23T05:07:17.829Z,2.91
2023-02-23T05:10:21.576Z,2.91
2023-02-23T05:13:24.939Z,2.90
2023-02-23T05:16:28.248Z,2.85
2023-02-23T05:19:31.544Z,2.87
2023-02-23T05:22:36.152Z,2.89
2023-02-23T05:25:39.771Z,2.84
2023-02-23T05:28:44.329Z,2.81
2023-02-23T05:31:48.651Z,2.80
2023-02-23T05:34:52.374Z,2.74
2023-02-23T05:37:58.807Z,2.72
2023-02-23T05:41:07.322Z,2.72
2023-02-23T05:44:11.188Z,2.67
2023-02-23T05:47:14.453Z,2.63
2023-02-23T05:50:17.873Z,2.59
2023-02-23T05:53:32.363Z,2.54
2023-02-23T05:56:35.621Z,2.52
2023-02-23T05:59:38.784Z,2.46
2023-02-23T06:02:42.540Z,2.42
2023-02-23T06:05:54.096Z,2.40
2023-02-23T06:08:59.509Z,2.36
2023-02-23T06:12:02.646Z,2.32
2023-02-23T06:15:07.397Z,2.32
2023-02-23T06:18:10.903Z,2.28
2023-02-23T06:21:15.806Z,2.27
2023-02-23T06:24:20.322Z,2.26
2023-02-23T06:27:23.346Z,2.27
2023-02-23T06:30:29.645Z,2.23
2023-02-23T06:33:32.761Z,2.28
2023-02-23T06:36:36.107Z,2.28
2023-02-23T06:39:40.565Z,2.31
2023-02-23T06:42:43.676Z,2.34
2023-02-23T06:45:47.880Z,2.35
2023-02-23T06:48:51.667Z,2.43
2023-02-23T06:51:55.323Z,2.42
2023-02-23T06:55:02.664Z,2.48
2023-02-23T06:58:07.180Z,2.56
2023-02-23T07:01:14.176Z,2.54
2023-02-23T07:04:17.385Z,2.58
2023-02-23T07:07:20.984Z,2.62
2023-02-23T07:10:28.130Z,2.67
2023-02-23T07:13:37.008Z,2.74
2023-02-23T07:16:40.573Z,2.75
2023-02-23T07:19:43.655Z,2.81
2023-02-23T07:22:47.350Z,2.87
2023-02-23T07:25:53.048Z,2.95
2023-02-23T07:28:58.370Z,2.93
2023-02-23T07:32:01.975Z,2.98
2023-02-23T07:35:06.907Z,2.98
2023-02-23T07:38:10.382Z,2.94
2023-02-23T07:41:18.270Z,3.05
2023-02-23T07:44:21.782Z,3.13
2023-02-23T07:47:30.880Z,3.11
2023-02-23T07:50:35.562Z,3.05
2023-02-23T07:53:41.419Z,3.05
2023-02-23T07:56:45.870Z,3.18
2023-02-23T07:59:49.336Z,3.24
2023-02-23T08:02:54.009Z,3.26
2023-02-23T08:05:57.489Z,3.38
2023-02-23T08:09:01.105Z,3.44
2023-02-23T08:12:06.342Z,3.54
2023-02-23T08:15:11.507Z,3.65
2023-02-23T08:18:14.692Z,3.75
2023-02-23T08:21:17.833Z,3.85
2023-02-23T08:24:20.968Z,3.88
2023-02-23T08:27:25.786Z,4.01
2023-02-23T08:30:28.884Z,4.05
2023-02-23T08:33:33.047Z,4.15
2023-02-23T08:36:36.397Z,4.19
2023-02-23T08:39:43.521Z,4.15
2023-02-23T08:42:52.504Z,4.20
2023-02-23T08:45:55.887Z,4.29
2023-02-23T08:48:59.548Z,4.33
2023-02-23T08:52:02.544Z,4.47
2023-02-23T08:55:06.604Z,4.52
2023-02-23T08:58:12.386Z,4.61
2023-02-23T09:01:19.316Z,4.62
2023-02-23T09:04:22.868Z,4.66
2023-02-23T09:07:26.853Z,4.73
2023-02-23T09:10:30.280Z,4.71
2023-02-23T09:13:36.511Z,4.79
2023-02-23T09:16:39.756Z,4.88
2023-02-23T09:19:42.921Z,4.90
2023-02-23T09:22:48.795Z,5.01
2023-02-23T09:25:52.000Z,5.11
2023-02-23T09:28:56.670Z,5.14
2023-02-23T09:32:00.023Z,5.26
2023-02-23T09:35:03.129Z,5.41
2023-02-23T09:38:08.332Z,5.60
2023-02-23T09:41:52.461Z,5.64
2023-02-23T09:45:20.112Z,5.80
2023-02-23T09:48:27.706Z,5.98
2023-02-23T09:51:35.929Z,6.10
2023-02-23T09:54:41.787Z,6.12
2023-02-23T09:57:49.247Z,6.25
2023-02-23T10:01:30.643Z,6.43
2023-02-23T10:04:40.892Z,6.63
2023-02-23T10:07:50.673Z,6.78
2023-02-23T10:11:08.390Z,7.04
2023-02-23T10:14:31.673Z,7.11
2023-02-23T10:17:46.508Z,7.13
2023-02-23T10:20:58.241Z,7.52
2023-02-23T10:24:05.664Z,7.66
2023-02-23T10:27:15.615Z,7.89
2023-02-23T10:30:23.090Z,8.06
2023-02-23T10:33:34.932Z,8.23
2023-02-23T10:36:41.215Z,8.26
2023-02-23T10:39:44.379Z,8.38
2023-02-23T10:42:47.726Z,8.45
2023-02-23T10:45:53.720Z,8.61
2023-02-23T10:49:00.488Z,8.81
2023-02-23T10:52:03.710Z,9.04
2023-02-23T10:55:09.693Z,9.00
2023-02-23T10:58:17.784Z,9.02
2023-02-23T11:01:41.914Z,9.21
2023-02-23T11:04:57.033Z,9.31
2023-02-23T11:08:29.201Z,9.67
2023-02-23T11:11:32.389Z,9.59
2023-02-23T11:14:35.442Z,9.47
2023-02-23T11:17:39.442Z,9.40
2023-02-23T11:20:44.828Z,9.62
2023-02-23T11:23:55.054Z,9.97
2023-02-23T11:27:03.739Z,10.04
2023-02-23T11:30:08.962Z,10.25
2023-02-23T11:33:18.759Z,10.34
2023-02-23T11:36:30.517Z,10.45
2023-02-23T11:39:34.445Z,10.46
2023-02-23T11:42:37.507Z,10.67
2023-02-23T11:45:48.454Z,10.49
2023-02-23T11:48:55.985Z,10.63
2023-02-23T11:52:00.548Z,10.96
2023-02-23T11:55:08.985Z,11.09
2023-02-23T11:58:25.095Z,11.09
2023-02-23T12:01:45.571Z,11.21
2023-02-23T12:04:48.830Z,11.34
2023-02-23T12:08:01.312Z,11.31
2023-02-23T12:11:09.329Z,11.28
2023-02-23T12:14:23.007Z,11.44
2023-02-23T12:17:29.068Z,11.31
2023-02-23T12:20:42.524Z,11.33
2023-02-23T12:23:53.007Z,11.20
2023-02-23T12:27:00.299Z,11.32
2023-02-23T12:30:13.412Z,11.42
2023-02-23T12:33:30.098Z,11.56
2023-02-23T12:36:40.275Z,11.58
2023-02-23T12:39:48.461Z,11.78
2023-02-23T12:43:01.489Z,11.85
2023-02-23T12:46:13.128Z,11.89
2023-02-23T12:49:26.616Z,11.97
2023-02-23T12:52:36.695Z,11.83
2023-02-23T12:55:58.245Z,11.80
2023-02-23T12:59:21.916Z,11.85
2023-02-23T13:02:31.513Z,12.04
2023-02-23T13:05:39.553Z,12.04
2023-02-23T13:09:01.745Z,11.94
2023-02-23T13:12:28.528Z,12.01
2023-02-23T13:15:48.196Z,11.84
2023-02-23T13:19:15.256Z,11.70
2023-02-23T13:22:32.555Z,11.67
2023-02-23T13:25:44.110Z,11.73
2023-02-23T13:28:58.684Z,11.52
2023-02-23T13:32:04.892Z,11.56
2023-02-23T13:35:15.763Z,11.64
2023-02-23T13:38:32.177Z,11.85
2023-02-23T13:41:40.387Z,11.99
2023-02-23T13:44:52.374Z,12.01
2023-02-23T13:48:02.077Z,11.65
2023-02-23T13:51:15.892Z,11.44
2023-02-23T13:54:35.761Z,11.34
2023-02-23T13:57:46.158Z,11.30
2023-02-23T14:01:06.017Z,11.27
2023-02-23T14:04:17.290Z,11.19
2023-02-23T14:07:28.117Z,10.89
2023-02-23T14:10:38.643Z,10.93
2023-02-23T14:13:59.414Z,10.99
2023-02-23T14:17:57.816Z,11.02
2023-02-23T14:21:17.892Z,11.05
2023-02-23T14:24:24.424Z,10.77
2023-02-23T14:27:41.908Z,10.58
2023-02-23T14:30:53.065Z,10.48
2023-02-23T14:34:08.064Z,10.47
2023-02-23T14:37:21.933Z,10.51
2023-02-23T14:40:57.147Z,10.39
2023-02-23T14:44:12.283Z,10.41
2023-02-23T14:47:50.624Z,10.40
2023-02-23T14:55:30.926Z,10.36
2023-02-23T14:58:35.157Z,10.36
2023-02-23T15:01:40.982Z,10.22
2023-02-23T15:04:44.091Z,10.16
2023-02-23T15:07:51.833Z,10.06
2023-02-23T15:11:03.346Z,10.03
2023-02-23T15:14:10.529Z,10.10
2023-02-23T15:17:22.978Z,10.07
2023-02-23T15:23:39.830Z,9.97
2023-02-23T15:26:43.763Z,9.97
2023-02-23T15:29:47.569Z,9.99
2023-02-23T15:33:00.704Z,9.96
2023-02-23T15:36:09.802Z,10.01
2023-02-23T15:39:19.071Z,10.04
2023-02-23T15:42:28.039Z,9.99
2023-02-23T15:45:40.222Z,9.90
2023-02-23T15:48:48.525Z,9.87
2023-02-23T15:51:59.340Z,9.85
2023-02-23T15:55:10.119Z,9.79
2023-02-23T15:58:21.690Z,9.73
2023-02-23T16:01:28.133Z,9.65
2023-02-23T16:04:33.945Z,9.67
2023-02-23T16:07:43.344Z,9.64
2023-02-23T16:10:49.269Z,9.64
2023-02-23T16:13:55.051Z,9.62
2023-02-23T16:17:10.958Z,9.49
2023-02-23T16:20:19.482Z,9.51
2023-02-23T16:23:34.335Z,9.48
2023-02-23T16:26:47.237Z,9.46
2023-02-23T16:30:00.177Z,9.49
2023-02-23T16:33:08.396Z,9.55
2023-02-23T16:36:21.297Z,9.60
2023-02-23T16:39:29.595Z,9.47
2023-02-23T16:42:40.322Z,9.56
2023-02-23T16:45:44.924Z,9.32
2023-02-23T16:48:48.670Z,9.29
2023-02-23T16:51:52.200Z,9.26
2023-02-23T16:54:57.516Z,9.25
2023-02-23T16:58:04.868Z,9.27
2023-02-23T17:01:10.585Z,9.23
2023-02-23T17:04:16.230Z,9.12
2023-02-23T17:07:24.123Z,9.10
2023-02-23T17:10:31.963Z,9.12
2023-02-23T17:13:37.038Z,9.06
2023-02-23T17:16:40.217Z,9.09
2023-02-23T17:19:44.128Z,9.12
2023-02-23T17:34:09.773Z,9.08
2023-02-23T17:37:12.833Z,8.98
2023-02-23T17:40:18.946Z,9.02
2023-02-23T17:43:23.239Z,8.96
2023-02-23T17:46:29.257Z,8.94
2023-02-23T17:49:33.917Z,8.92
2023-02-23T17:52:37.119Z,8.87
2023-02-23T17:55:40.362Z,8.87
2023-02-23T17:58:43.514Z,8.83
2023-02-23T18:01:48.626Z,8.82
2023-02-23T18:04:54.140Z,8.83
2023-02-23T18:08:01.871Z,8.80
2023-02-23T18:11:05.425Z,8.74
2023-02-23T18:14:09.541Z,8.74
2023-02-23T18:17:13.709Z,8.79
2023-02-23T18:20:18.769Z,8.78
2023-02-23T18:23:23.038Z,8.76
2023-02-23T18:26:27.063Z,8.77
2023-02-23T18:29:34.450Z,8.74
2023-02-23T18:32:37.767Z,8.80
2023-02-23T18:35:45.073Z,8.89
2023-02-23T18:38:48.584Z,8.95
2023-02-23T18:41:51.969Z,8.95
2023-02-23T18:44:55.041Z,8.91
2023-02-23T18:47:59.943Z,8.87
2023-02-23T18:51:05.861Z,8.80
2023-02-23T18:54:11.719Z,8.81
2023-02-23T18:57:18.303Z,8.76
2023-02-23T19:00:22.689Z,8.78
2023-02-23T19:03:25.894Z,8.75
2023-02-23T19:06:33.036Z,8.67
2023-02-23T19:09:47.153Z,8.63
2023-02-23T19:12:50.422Z,8.62
2023-02-23T19:16:01.611Z,8.61
2023-02-23T19:19:07.440Z,8.60
2023-02-23T19:22:19.171Z,8.58
2023-02-23T19:25:28.459Z,8.64
2023-02-23T19:28:32.560Z,8.64
2023-02-23T19:31:42.688Z,8.60
2023-02-23T19:34:48.267Z,8.60
2023-02-23T19:37:57.534Z,8.56
2023-02-23T19:41:00.791Z,8.58
2023-02-23T19:44:04.470Z,8.60
2023-02-23T19:47:07.525Z,8.59
2023-02-23T19:50:18.843Z,8.56
2023-02-23T19:53:28.056Z,8.55
2023-02-23T19:56:31.309Z,8.51
2023-02-23T19:59:34.389Z,8.51
2023-02-23T20:02:42.482Z,8.55
2023-02-23T20:05:45.678Z,8.54
2023-02-23T20:08:55.194Z,8.48
2023-02-23T20:11:58.940Z,8.47
2023-02-23T20:15:05.210Z,8.47
2023-02-23T20:18:09.023Z,8.39
2023-02-23T20:21:16.455Z,8.15
2023-02-23T20:24:21.683Z,8.02
2023-02-23T20:27:24.985Z,7.80
2023-02-23T20:30:32.209Z,7.74
2023-02-23T20:33:38.766Z,7.61
2023-02-23T20:36:42.076Z,7.59
2023-02-23T20:39:47.441Z,7.50
2023-02-23T20:42:52.560Z,7.50
2023-02-23T20:46:00.796Z,7.47
2023-02-23T20:49:05.458Z,7.46
2023-02-23T20:52:08.684Z,7.42
2023-02-23T20:55:18.410Z,7.45
2023-02-23T20:58:25.989Z,7.44
2023-02-23T21:01:29.684Z,7.40
2023-02-23T21:04:35.281Z,7.38
2023-02-23T21:07:38.974Z,7.39
2023-02-23T21:10:43.506Z,7.38
2023-02-23T21:13:47.241Z,7.39
2023-02-23T21:16:50.390Z,7.36
2023-02-23T21:19:53.445Z,7.33
2023-02-23T21:22:59.129Z,7.33
2023-02-23T21:26:14.790Z,7.33
2023-02-23T21:29:23.814Z,7.30
2023-02-23T21:32:31.122Z,7.34
2023-02-23T21:35:38.330Z,7.30
2023-02-23T21:38:45.863Z,7.26
2023-02-23T21:41:50.401Z,7.22
2023-02-23T21:44:56.328Z,7.20
2023-02-23T21:48:01.496Z,7.18
2023-02-23T21:51:09.257Z,7.18
2023-02-23T21:54:21.515Z,7.21
2023-02-23T21:57:30.607Z,7.15
2023-02-23T22:00:35.753Z,7.13
2023-02-23T22:03:43.462Z,7.13
2023-02-23T22:06:46.580Z,7.15
2023-02-23T22:09:51.671Z,7.14
2023-02-23T22:12:56.928Z,7.11
2023-02-23T22:16:00.708Z,7.15
2023-02-23T22:19:05.077Z,7.12
2023-02-23T22:22:11.351Z,7.06
2023-02-23T22:25:17.355Z,7.10
2023-02-23T22:28:25.943Z,7.07
2023-02-23T22:31:32.553Z,6.98
2023-02-23T22:34:36.358Z,6.98
2023-02-23T22:37:39.715Z,6.99
2023-02-23T22:40:47.463Z,6.99
2023-02-23T22:43:55.686Z,7.01
2023-02-23T22:47:00.801Z,6.96
2023-02-23T22:50:15.104Z,6.96
2023-02-23T22:53:19.293Z,6.95
2023-02-23T22:56:25.039Z,6.93
2023-02-23T22:59:30.551Z,6.96
2023-02-23T23:02:36.425Z,6.92
2023-02-23T23:05:41.741Z,6.90
2023-02-23T23:08:49.382Z,6.90
2023-02-23T23:11:52.647Z,6.86
2023-02-23T23:15:01.357Z,6.86
2023-02-23T23:18:13.941Z,6.89
2023-02-23T23:21:21.894Z,6.88
2023-02-23T23:24:26.204Z,6.90
2023-02-23T23:27:33.094Z,6.88
2023-02-23T23:30:41.096Z,6.93
2023-02-23T23:33:51.257Z,6.91
2023-02-23T23:36:55.498Z,6.89
2023-02-23T23:40:00.290Z,6.86
2023-02-23T23:43:07.468Z,6.85
2023-02-23T23:46:14.941Z,6.82
2023-02-23T23:49:21.133Z,6.83
2023-02-23T23:52:25.267Z,6.84
2023-02-23T23:55:31.709Z,6.84
2023-02-23T23:58:35.065Z,6.86
